createdAt,value
2017-01-17T04:00:32.503Z,37.68
2017-01-17T04:00:58.055Z,37.87
2017-01-17T04:01:23.707Z,37.77
2017-01-17T04:01:49.242Z,37.87
2017-01-17T04:02:14.813Z,37.58
2017-01-17T04:02:40.570Z,37.58
2017-01-17T04:03:06.258Z,37.77
2017-01-17T04:03:31.865Z,37.87
2017-01-17T04:03:57.427Z,37.77
2017-01-17T04:04:22.994Z,38.06
2017-01-17T04:04:48.597Z,37.68
2017-01-17T04:05:14.224Z,37.77
2017-01-17T04:05:39.777Z,37.77
2017-01-17T04:06:05.330Z,37.87
2017-01-17T04:06:30.889Z,37.77
2017-01-17T04:06:56.451Z,37.87
2017-01-17T04:07:21.998Z,38.16
2017-01-17T04:07:47.555Z,38.06
2017-01-17T04:08:13.272Z,38.06
2017-01-17T04:08:38.924Z,38.06
2017-01-17T04:09:04.502Z,38.26
2017-01-17T04:09:30.130Z,38.16
2017-01-17T04:09:55.704Z,37.96
2017-01-17T04:10:21.270Z,38.26
2017-01-17T04:10:46.851Z,38.16
2017-01-17T04:11:12.569Z,38.26
2017-01-17T04:11:38.188Z,38.45
2017-01-17T04:12:03.912Z,38.35
2017-01-17T04:12:29.477Z,38.35
2017-01-17T04:12:55.040Z,38.35
2017-01-17T04:13:20.739Z,38.45
2017-01-17T04:13:46.306Z,38.35
2017-01-17T04:14:11.861Z,38.64
2017-01-17T04:14:37.540Z,38.64
2017-01-17T04:15:03.180Z,39.12
2017-01-17T04:15:28.741Z,39.03
2017-01-17T04:15:54.300Z,39.03
2017-01-17T04:16:20.016Z,38.74
2017-01-17T04:16:45.574Z,38.74
2017-01-17T04:17:11.222Z,39.03
2017-01-17T04:17:36.828Z,39.12
2017-01-17T04:18:02.390Z,38.93
2017-01-17T04:18:27.932Z,38.93
2017-01-17T04:18:53.514Z,39.03
2017-01-17T04:19:19.085Z,39.03
2017-01-17T04:19:44.653Z,39.03
2017-01-17T04:20:10.223Z,38.93
2017-01-17T04:20:35.891Z,39.03
2017-01-17T04:21:01.462Z,38.93
2017-01-17T04:21:27.040Z,39.03
2017-01-17T04:21:52.744Z,39.03
2017-01-17T04:22:50.921Z,39.03
2017-01-17T04:23:16.574Z,38.93
2017-01-17T04:23:42.243Z,39.03
2017-01-17T04:24:07.787Z,39.03
2017-01-17T04:24:33.340Z,38.83
2017-01-17T04:24:59.070Z,38.93
2017-01-17T04:25:24.661Z,38.93
2017-01-17T04:25:50.320Z,38.93
2017-01-17T04:26:15.905Z,39.03
2017-01-17T04:26:41.457Z,39.03
2017-01-17T04:27:07.007Z,39.12
2017-01-17T04:27:32.691Z,38.93
2017-01-17T04:27:58.235Z,39.12
2017-01-17T04:28:23.778Z,39.03
2017-01-17T04:28:49.502Z,39.03
2017-01-17T04:29:15.046Z,38.93
2017-01-17T04:29:40.630Z,39.03
2017-01-17T04:30:06.176Z,39.03
2017-01-17T04:30:31.808Z,39.03
2017-01-17T04:30:57.398Z,38.93
2017-01-17T04:31:22.962Z,39.03
2017-01-17T04:32:36.450Z,39.03
2017-01-17T04:33:02.079Z,38.93
2017-01-17T04:33:27.640Z,38.93
2017-01-17T04:33:53.294Z,38.93
2017-01-17T04:34:18.912Z,39.03
2017-01-17T04:34:44.527Z,39.03
2017-01-17T04:35:10.086Z,39.03
2017-01-17T04:35:35.736Z,38.93
2017-01-17T04:36:01.288Z,39.03
2017-01-17T04:36:26.837Z,38.93
2017-01-17T04:36:52.401Z,39.03
2017-01-17T04:37:18.062Z,39.03
2017-01-17T04:37:43.690Z,38.93
2017-01-17T04:38:09.247Z,39.03
2017-01-17T04:38:34.923Z,39.03
2017-01-17T04:39:00.473Z,39.41
2017-01-17T04:39:26.023Z,39.12
2017-01-17T04:39:51.693Z,38.93
2017-01-17T04:40:17.240Z,38.93
2017-01-17T04:40:42.792Z,39.03
2017-01-17T04:41:08.363Z,39.12
2017-01-17T04:41:33.926Z,39.03
2017-01-17T04:41:59.537Z,38.93
2017-01-17T04:42:25.074Z,38.93
2017-01-17T04:42:50.632Z,38.93
2017-01-17T04:43:16.190Z,38.93
2017-01-17T04:43:41.750Z,39.12
2017-01-17T04:44:07.327Z,38.83
2017-01-17T04:45:15.630Z,38.93
2017-01-17T04:45:41.343Z,38.93
2017-01-17T04:46:06.983Z,38.93
2017-01-17T04:46:32.543Z,39.12
2017-01-17T04:46:58.108Z,38.93
2017-01-17T04:47:23.786Z,39.12
2017-01-17T04:47:49.326Z,39.12
2017-01-17T04:48:14.915Z,39.03
2017-01-17T04:48:40.598Z,39.03
2017-01-17T04:49:06.063Z,39.12
2017-01-17T04:49:31.613Z,38.83
2017-01-17T04:49:57.211Z,38.93
2017-01-17T04:50:22.774Z,38.93
2017-01-17T04:50:48.349Z,38.83
2017-01-17T04:51:13.912Z,39.03
2017-01-17T04:51:39.464Z,38.93
2017-01-17T04:52:05.007Z,39.03
2017-01-17T04:52:30.615Z,38.93
2017-01-17T04:52:56.213Z,39.03
2017-01-17T04:53:21.778Z,39.12
2017-01-17T04:53:47.353Z,38.83
2017-01-17T04:54:12.929Z,38.93
2017-01-17T04:54:38.471Z,39.03
2017-01-17T04:55:04.072Z,39.12
2017-01-17T04:55:29.616Z,39.12
2017-01-17T04:55:55.339Z,39.22
2017-01-17T04:56:20.958Z,38.83
2017-01-17T04:56:46.510Z,39.03
2017-01-17T04:57:12.153Z,39.03
2017-01-17T04:57:37.759Z,39.12
2017-01-17T04:58:03.311Z,39.03
2017-01-17T04:58:28.864Z,39.03
2017-01-17T04:58:54.540Z,39.03
2017-01-17T04:59:20.179Z,39.03
2017-01-17T04:59:45.740Z,38.93
2017-01-17T05:00:11.349Z,39.03
2017-01-17T05:01:14.575Z,38.93
2017-01-17T05:01:40.144Z,39.03
2017-01-17T05:02:05.721Z,38.93
2017-01-17T05:02:31.311Z,39.03
2017-01-17T05:02:56.875Z,39.03
2017-01-17T05:03:22.428Z,39.03
2017-01-17T05:03:48.001Z,39.03
2017-01-17T05:04:13.730Z,39.03
2017-01-17T05:04:39.304Z,39.03
2017-01-17T05:05:04.859Z,39.03
2017-01-17T05:05:30.502Z,39.03
2017-01-17T05:05:56.079Z,39.03
2017-01-17T05:06:21.635Z,38.93
2017-01-17T05:07:30.393Z,39.22
2017-01-17T05:07:55.947Z,39.03
2017-01-17T05:08:21.491Z,38.35
2017-01-17T05:08:47.051Z,38.45
2017-01-17T05:09:12.591Z,38.64
2017-01-17T05:09:38.143Z,39.03
2017-01-17T05:10:03.791Z,38.83
2017-01-17T05:10:29.362Z,38.93
2017-01-17T05:10:54.919Z,39.12
2017-01-17T05:11:20.618Z,38.93
2017-01-17T05:11:46.162Z,39.03
2017-01-17T05:12:11.717Z,39.03
2017-01-17T05:12:37.308Z,39.03
2017-01-17T05:13:35.399Z,38.93
2017-01-17T05:14:48.923Z,39.03
2017-01-17T05:15:14.460Z,38.93
2017-01-17T05:15:39.997Z,39.22
2017-01-17T05:17:47.023Z,39.12
2017-01-17T05:18:20.971Z,39.22
2017-01-17T05:18:46.519Z,39.12
2017-01-17T05:19:12.075Z,38.93
2017-01-17T05:19:37.619Z,39.12
2017-01-17T05:20:03.193Z,39.22
2017-01-17T05:20:28.730Z,39.22
2017-01-17T05:20:54.276Z,39.31
2017-01-17T05:21:19.816Z,39.22
2017-01-17T05:21:45.366Z,39.22
2017-01-17T05:22:10.917Z,39.12
2017-01-17T05:22:36.480Z,39.22
2017-01-17T05:23:02.091Z,39.22
2017-01-17T05:23:27.646Z,39.31
2017-01-17T05:23:53.201Z,39.31
2017-01-17T05:24:18.743Z,39.31
2017-01-17T05:24:44.361Z,39.51
2017-01-17T05:25:09.911Z,39.03
2017-01-17T05:25:35.469Z,39.31
2017-01-17T05:26:01.043Z,39.31
2017-01-17T05:26:26.624Z,39.31
2017-01-17T05:26:52.226Z,39.12
2017-01-17T05:27:17.772Z,39.12
2017-01-17T05:27:43.338Z,39.31
2017-01-17T05:28:08.885Z,39.12
2017-01-17T05:28:34.458Z,39.22
2017-01-17T05:29:00.036Z,39.12
2017-01-17T05:29:25.648Z,39.31
2017-01-17T05:29:51.229Z,39.22
2017-01-17T05:30:16.832Z,39.31
2017-01-17T05:30:42.378Z,39.41
2017-01-17T05:31:07.940Z,39.22
2017-01-17T05:31:33.682Z,39.22
2017-01-17T05:31:59.229Z,39.22
2017-01-17T05:32:24.791Z,39.22
2017-01-17T05:32:50.346Z,39.31
2017-01-17T05:33:15.946Z,39.51
2017-01-17T05:33:41.506Z,39.41
2017-01-17T05:34:07.064Z,39.41
2017-01-17T05:34:32.683Z,39.31
2017-01-17T05:34:58.293Z,39.31
2017-01-17T05:35:23.862Z,39.51
2017-01-17T05:35:49.406Z,39.22
2017-01-17T05:36:14.990Z,39.51
2017-01-17T05:36:40.550Z,39.61
2017-01-17T05:37:06.101Z,39.22
2017-01-17T05:37:31.654Z,39.31
2017-01-17T05:37:57.403Z,39.61
2017-01-17T05:38:22.958Z,39.7
2017-01-17T05:38:48.496Z,39.79
2017-01-17T05:39:14.040Z,39.61
2017-01-17T05:39:39.579Z,39.7
2017-01-17T05:40:05.228Z,39.61
2017-01-17T05:40:30.784Z,39.7
2017-01-17T05:40:56.346Z,39.7
2017-01-17T05:41:21.900Z,39.89
2017-01-17T05:41:47.470Z,40.28
2017-01-17T05:42:13.016Z,40.37
2017-01-17T05:42:38.655Z,40.57
2017-01-17T05:43:04.273Z,40.47
2017-01-17T05:43:30.002Z,40.57
2017-01-17T05:43:55.550Z,40.59
2017-01-17T05:44:21.156Z,40.66
2017-01-17T05:44:46.792Z,40.57
2017-01-17T05:45:12.337Z,40.47
2017-01-17T05:45:37.909Z,40.19
2017-01-17T05:46:03.505Z,40.57
2017-01-17T05:46:29.082Z,40.28
2017-01-17T05:46:54.643Z,40.3
2017-01-17T05:47:20.211Z,40.37
2017-01-17T05:47:45.783Z,40.28
2017-01-17T05:48:11.430Z,40.66
2017-01-17T05:48:37.014Z,40.47
2017-01-17T05:49:02.556Z,40.57
2017-01-17T05:49:28.110Z,40.37
2017-01-17T05:49:53.861Z,40.57
2017-01-17T05:50:19.442Z,40.28
2017-01-17T05:50:44.997Z,40.47
2017-01-17T05:51:10.577Z,40.19
2017-01-17T05:51:36.134Z,40.28
2017-01-17T05:52:01.765Z,40.37
2017-01-17T05:52:27.453Z,40.47
2017-01-17T05:52:53.010Z,40.47
2017-01-17T05:53:18.555Z,40.57
2017-01-17T05:53:44.127Z,40.19
2017-01-17T05:54:09.843Z,40.57
2017-01-17T05:54:35.435Z,40.66
2017-01-17T05:55:00.974Z,40.37
2017-01-17T05:55:26.629Z,40.47
2017-01-17T05:55:52.195Z,40.47
2017-01-17T05:56:17.761Z,40.47
2017-01-17T05:56:43.329Z,40.66
2017-01-17T05:57:09.037Z,40.57
2017-01-17T05:57:34.612Z,40.57
2017-01-17T05:58:00.278Z,40.66
2017-01-17T05:58:25.899Z,40.76
2017-01-17T05:58:51.481Z,40.76
2017-01-17T05:59:17.129Z,40.66
2017-01-17T05:59:42.713Z,40.66
2017-01-17T06:00:08.313Z,40.69
2017-01-17T06:00:34.098Z,40.57
2017-01-17T06:00:59.643Z,40.37
2017-01-17T06:01:25.290Z,40.28
2017-01-17T06:01:50.847Z,40.57
2017-01-17T06:02:16.422Z,40.37
2017-01-17T06:02:42.027Z,40.19
2017-01-17T06:03:07.598Z,40.28
2017-01-17T06:03:33.161Z,39.99
2017-01-17T06:03:58.733Z,40.19
2017-01-17T06:04:24.303Z,39.89
2017-01-17T06:04:49.901Z,39.99
2017-01-17T06:05:15.481Z,39.99
2017-01-17T06:05:41.084Z,40.09
2017-01-17T06:06:06.630Z,39.89
2017-01-17T06:06:32.274Z,39.7
2017-01-17T06:06:57.958Z,39.31
2017-01-17T06:07:23.539Z,39.31
2017-01-17T06:07:49.103Z,39.22
2017-01-17T06:08:14.696Z,39.31
2017-01-17T06:08:40.268Z,39.31
2017-01-17T06:09:05.822Z,39.12
2017-01-17T06:09:31.429Z,39.12
2017-01-17T06:09:57.070Z,38.93
2017-01-17T06:10:22.653Z,38.93
2017-01-17T06:11:25.851Z,39.12
2017-01-17T06:11:51.457Z,38.37
2017-01-17T06:12:17.054Z,38.16
2017-01-17T06:12:42.603Z,37.96
2017-01-17T06:13:08.292Z,37.96
2017-01-17T06:13:33.868Z,37.77
2017-01-17T06:13:59.445Z,37.7
2017-01-17T06:14:25.019Z,37.77
2017-01-17T06:14:50.574Z,37.29
2017-01-17T06:15:16.133Z,37.68
2017-01-17T06:15:41.704Z,37.48
2017-01-17T06:16:07.338Z,37.39
2017-01-17T06:16:33.725Z,37.31
2017-01-17T06:16:59.347Z,38.26
2017-01-17T06:17:24.889Z,38.37
2017-01-17T06:17:50.453Z,38.35
2017-01-17T06:18:16.067Z,38.28
2017-01-17T06:18:41.622Z,37.21
2017-01-17T06:19:07.365Z,35.56
2017-01-17T06:19:33.023Z,34.21
2017-01-17T06:19:58.564Z,33.92
2017-01-17T06:20:24.158Z,34.98
2017-01-17T06:20:49.792Z,35.46
2017-01-17T06:21:15.344Z,35.85
2017-01-17T06:21:40.993Z,35.65
2017-01-17T06:22:06.567Z,36.04
2017-01-17T06:22:32.141Z,36.81
2017-01-17T06:22:57.702Z,37.19
2017-01-17T06:23:23.306Z,37.5
2017-01-17T06:23:48.872Z,37.48
2017-01-17T06:24:14.429Z,36.81
2017-01-17T06:24:40.000Z,34.59
2017-01-17T06:25:05.571Z,33.05
2017-01-17T06:25:31.155Z,32.18
2017-01-17T06:25:56.725Z,32.57
2017-01-17T06:26:22.290Z,32.86
2017-01-17T06:26:47.878Z,33.23
2017-01-17T06:27:13.625Z,34.5
2017-01-17T06:27:39.175Z,35.08
2017-01-17T06:28:04.746Z,35.17
2017-01-17T06:28:30.394Z,35.27
2017-01-17T06:28:56.026Z,35.65
2017-01-17T06:29:21.591Z,36.43
2017-01-17T06:29:47.154Z,36.52
2017-01-17T06:30:12.709Z,36.81
2017-01-17T06:30:38.306Z,37.01
2017-01-17T06:31:03.868Z,37.19
2017-01-17T06:31:29.464Z,37.39
2017-01-17T06:31:55.049Z,37.29
2017-01-17T06:32:20.627Z,37.29
2017-01-17T06:32:46.193Z,37.77
2017-01-17T06:33:11.757Z,37.68
2017-01-17T06:33:37.365Z,37.68
2017-01-17T06:34:02.997Z,37.58
2017-01-17T06:34:28.650Z,37.58
2017-01-17T06:34:54.207Z,37.39
2017-01-17T06:35:19.781Z,37.58
2017-01-17T06:35:45.343Z,37.77
2017-01-17T06:36:10.893Z,37.87
2017-01-17T06:36:36.451Z,37.77
2017-01-17T06:37:02.092Z,37.87
2017-01-17T06:37:27.652Z,37.68
2017-01-17T06:37:53.297Z,37.68
2017-01-17T06:38:18.906Z,37.77
2017-01-17T06:38:44.458Z,37.87
2017-01-17T06:39:10.010Z,37.96
2017-01-17T06:39:35.749Z,38.06
2017-01-17T06:40:01.339Z,37.96
2017-01-17T06:40:26.914Z,37.77
2017-01-17T06:40:52.472Z,37.96
2017-01-17T06:41:18.050Z,37.96
2017-01-17T06:41:43.626Z,37.96
2017-01-17T06:42:09.181Z,37.87
2017-01-17T06:42:34.807Z,37.87
2017-01-17T06:43:00.367Z,38.26
2017-01-17T06:43:25.946Z,38.16
2017-01-17T06:43:51.523Z,38.06
2017-01-17T06:44:17.087Z,38.16
2017-01-17T06:44:42.752Z,37.96
2017-01-17T06:45:08.322Z,38.16
2017-01-17T06:45:33.871Z,38.16
2017-01-17T06:45:59.432Z,38.35
2017-01-17T06:46:24.984Z,38.35
2017-01-17T06:46:50.553Z,38.26
2017-01-17T06:47:16.124Z,37.96
2017-01-17T06:47:41.679Z,38.16
2017-01-17T06:48:50.072Z,38.16
2017-01-17T06:49:15.625Z,38.45
2017-01-17T06:49:41.212Z,38.35
2017-01-17T06:50:06.796Z,38.45
2017-01-17T06:50:32.410Z,38.74
2017-01-17T06:50:58.023Z,39.12
2017-01-17T06:51:23.587Z,38.93
2017-01-17T06:51:49.251Z,38.93
2017-01-17T06:52:14.844Z,39.03
2017-01-17T06:52:40.407Z,39.03
2017-01-17T06:53:05.972Z,39.12
2017-01-17T06:53:31.668Z,39.03
2017-01-17T06:53:57.241Z,39.22
2017-01-17T06:54:22.789Z,39.31
2017-01-17T06:54:48.349Z,39.22
2017-01-17T06:55:13.895Z,39.12
2017-01-17T06:55:39.469Z,38.93
2017-01-17T06:56:05.127Z,39.12
2017-01-17T06:56:30.905Z,38.74
2017-01-17T06:56:56.499Z,38.54
2017-01-17T06:57:22.013Z,38.74
2017-01-17T06:57:47.630Z,38.74
2017-01-17T06:58:13.238Z,38.74
2017-01-17T06:58:38.899Z,38.64
2017-01-17T06:59:04.480Z,38.64
2017-01-17T06:59:30.099Z,39.12
2017-01-17T06:59:55.659Z,38.93
2017-01-17T07:01:09.086Z,39.41
2017-01-17T07:01:34.665Z,39.7
2017-01-17T07:02:00.244Z,39.7
2017-01-17T07:02:25.821Z,39.7
2017-01-17T07:02:51.393Z,39.7
2017-01-17T07:03:17.012Z,39.7
2017-01-17T07:03:42.580Z,39.41
2017-01-17T07:04:08.133Z,39.41
2017-01-17T07:04:33.708Z,39.7
2017-01-17T07:04:59.291Z,40.09
2017-01-17T07:05:24.846Z,39.99
2017-01-17T07:05:50.403Z,40.09
2017-01-17T07:06:15.952Z,39.79
2017-01-17T07:06:41.663Z,39.79
2017-01-17T07:07:07.217Z,39.99
2017-01-17T07:07:32.773Z,39.99
2017-01-17T07:07:58.330Z,40.37
2017-01-17T07:08:23.914Z,40.47
2017-01-17T07:08:49.571Z,40.28
2017-01-17T07:09:15.034Z,40.09
2017-01-17T07:09:40.580Z,40.47
2017-01-17T07:10:06.128Z,40.09
2017-01-17T07:10:31.754Z,40.19
2017-01-17T07:10:57.305Z,39.79
2017-01-17T07:11:22.896Z,40.47
2017-01-17T07:11:48.462Z,40.28
2017-01-17T07:12:14.166Z,40.47
2017-01-17T07:12:39.739Z,40.19
2017-01-17T07:13:05.370Z,40.28
2017-01-17T07:13:30.932Z,40.76
2017-01-17T07:13:56.484Z,40.66
2017-01-17T07:14:22.053Z,40.95
2017-01-17T07:14:47.654Z,40.66
2017-01-17T07:15:13.225Z,40.57
2017-01-17T07:15:38.797Z,40.86
2017-01-17T07:16:04.340Z,40.57
2017-01-17T07:16:29.882Z,40.86
2017-01-17T07:16:55.545Z,40.76
2017-01-17T07:17:21.098Z,40.95
2017-01-17T07:17:46.650Z,40.86
2017-01-17T07:18:12.214Z,40.66
2017-01-17T07:18:37.785Z,40.66
2017-01-17T07:19:03.373Z,40.66
2017-01-17T07:19:28.939Z,40.76
2017-01-17T07:19:54.512Z,40.95
2017-01-17T07:20:20.148Z,40.86
2017-01-17T07:20:45.766Z,40.95
2017-01-17T07:21:11.316Z,40.95
2017-01-17T07:21:36.889Z,40.66
2017-01-17T07:22:02.560Z,40.57
2017-01-17T07:22:28.106Z,40.66
2017-01-17T07:22:53.649Z,40.66
2017-01-17T07:23:19.193Z,40.66
2017-01-17T07:23:44.740Z,40.66
2017-01-17T07:24:10.374Z,40.57
2017-01-17T07:24:35.924Z,40.66
2017-01-17T07:25:01.491Z,40.57
2017-01-17T07:25:27.163Z,40.57
2017-01-17T07:25:52.832Z,40.66
2017-01-17T07:26:18.430Z,40.66
2017-01-17T07:26:44.006Z,40.66
2017-01-17T07:27:09.562Z,40.66
2017-01-17T07:27:35.111Z,40.57
2017-01-17T07:28:00.652Z,40.57
2017-01-17T07:28:26.253Z,40.66
2017-01-17T07:28:51.929Z,40.57
2017-01-17T07:29:17.488Z,40.37
2017-01-17T07:29:43.136Z,40.57
2017-01-17T07:30:08.684Z,40.19
2017-01-17T07:30:34.312Z,40.37
2017-01-17T07:30:59.860Z,40.47
2017-01-17T07:31:25.473Z,40.47
2017-01-17T07:31:51.117Z,40.37
2017-01-17T07:32:17.441Z,40.47
2017-01-17T07:32:43.068Z,40.57
2017-01-17T07:33:08.651Z,40.47
2017-01-17T07:33:34.232Z,40.37
2017-01-17T07:33:59.779Z,40.47
2017-01-17T07:34:25.352Z,40.37
2017-01-17T07:34:51.042Z,39.99
2017-01-17T07:35:17.375Z,40.47
2017-01-17T07:35:42.931Z,40.57
2017-01-17T07:36:50.204Z,40.28
2017-01-17T07:37:15.754Z,40.37
2017-01-17T07:37:41.420Z,40.37
2017-01-17T07:38:06.970Z,40.57
2017-01-17T07:38:32.502Z,40.47
2017-01-17T07:38:58.392Z,40.47
2017-01-17T07:39:23.952Z,40.47
2017-01-17T07:39:50.170Z,40.28
2017-01-17T07:40:15.746Z,40.47
2017-01-17T07:40:41.979Z,40.47
2017-01-17T07:41:07.518Z,40.37
2017-01-17T07:41:33.066Z,40.37
2017-01-17T07:41:59.441Z,40.47
2017-01-17T07:42:25.009Z,40.47
2017-01-17T07:42:51.116Z,40.37
2017-01-17T07:43:16.682Z,40.37
2017-01-17T07:43:42.344Z,40.57
2017-01-17T07:44:08.439Z,40.55
2017-01-17T07:44:34.709Z,40.26
2017-01-17T07:45:00.352Z,40.28
2017-01-17T07:45:25.904Z,40.36
2017-01-17T07:45:52.054Z,40.26
2017-01-17T07:46:17.608Z,40.36
2017-01-17T07:46:43.150Z,40.36
2017-01-17T07:47:09.385Z,40.37
2017-01-17T07:47:34.951Z,40.26
2017-01-17T07:48:01.189Z,40.64
2017-01-17T07:48:26.811Z,40.26
2017-01-17T07:48:52.359Z,40.45
2017-01-17T07:49:18.576Z,40.37
2017-01-17T07:49:44.143Z,40.36
2017-01-17T07:50:10.330Z,40.36
2017-01-17T07:50:35.877Z,40.19
2017-01-17T07:51:02.130Z,40.16
2017-01-17T07:51:27.700Z,40.45
2017-01-17T07:51:53.349Z,40.45
2017-01-17T07:52:19.454Z,40.37
2017-01-17T07:52:45.011Z,40.16
2017-01-17T07:53:11.274Z,40.28
2017-01-17T07:53:36.840Z,40.16
2017-01-17T07:54:02.397Z,40.45
2017-01-17T07:54:28.586Z,39.97
2017-01-17T07:54:54.136Z,40.45
2017-01-17T07:55:20.433Z,40.47
2017-01-17T07:55:45.987Z,40.36
2017-01-17T07:56:12.215Z,40.45
2017-01-17T07:56:38.717Z,40.57
2017-01-17T07:57:04.282Z,40.45
2017-01-17T07:58:12.662Z,40.26
2017-01-17T07:58:38.336Z,40.36
2017-01-17T07:59:03.924Z,40.36
2017-01-17T07:59:29.479Z,40.55
2017-01-17T07:59:55.023Z,40.16
2017-01-17T08:00:20.601Z,40.45
2017-01-17T08:00:46.145Z,40.45
2017-01-17T08:01:11.717Z,40.36
2017-01-17T08:01:37.298Z,40.26
2017-01-17T08:02:02.849Z,40.16
2017-01-17T08:02:28.508Z,40.45
2017-01-17T08:02:54.156Z,40.07
2017-01-17T08:03:19.713Z,40.55
2017-01-17T08:03:45.344Z,40.16
2017-01-17T08:04:10.901Z,40.45
2017-01-17T08:04:36.469Z,40.16
2017-01-17T08:05:02.055Z,40.45
2017-01-17T08:05:27.624Z,40.36
2017-01-17T08:05:53.299Z,40.26
2017-01-17T08:06:18.716Z,40.26
2017-01-17T08:06:44.254Z,40.26
2017-01-17T08:07:09.811Z,40.26
2017-01-17T08:07:35.524Z,40.45
2017-01-17T08:08:01.148Z,40.55
2017-01-17T08:08:27.722Z,40.26
2017-01-17T08:08:53.290Z,40.36
2017-01-17T08:09:18.845Z,40.55
2017-01-17T08:09:44.484Z,40.45
2017-01-17T08:10:10.051Z,40.26
2017-01-17T08:10:35.605Z,40.36
2017-01-17T08:11:01.259Z,40.55
2017-01-17T08:11:26.886Z,40.55
2017-01-17T08:11:52.467Z,40.45
2017-01-17T08:12:18.047Z,40.57
2017-01-17T08:12:43.600Z,40.55
2017-01-17T08:13:09.171Z,40.57
2017-01-17T08:13:34.719Z,40.64
2017-01-17T08:14:00.284Z,40.64
2017-01-17T08:14:25.860Z,40.57
2017-01-17T08:14:51.503Z,40.55
2017-01-17T08:15:17.044Z,40.57
2017-01-17T08:15:42.596Z,40.64
2017-01-17T08:16:08.179Z,40.55
2017-01-17T08:16:33.764Z,40.66
2017-01-17T08:16:59.375Z,40.57
2017-01-17T08:17:24.904Z,40.55
2017-01-17T08:17:50.441Z,40.57
2017-01-17T08:18:15.993Z,40.57
2017-01-17T08:18:41.661Z,40.47
2017-01-17T08:19:07.296Z,40.55
2017-01-17T08:19:32.853Z,40.55
2017-01-17T08:19:58.944Z,40.37
2017-01-17T08:20:24.500Z,40.28
2017-01-17T08:20:50.059Z,40.28
2017-01-17T08:21:15.626Z,40.47
2017-01-17T08:21:41.199Z,40.37
2017-01-17T08:22:06.765Z,40.55
2017-01-17T08:22:32.319Z,40.19
2017-01-17T08:22:57.859Z,40.47
2017-01-17T08:23:23.568Z,40.57
2017-01-17T08:23:49.162Z,40.47
2017-01-17T08:24:14.747Z,40.57
2017-01-17T08:24:40.501Z,40.47
2017-01-17T08:25:06.002Z,40.09
2017-01-17T08:25:31.543Z,40.36
2017-01-17T08:25:57.117Z,40.47
2017-01-17T08:26:22.780Z,40.47
2017-01-17T08:26:48.327Z,40.28
2017-01-17T08:27:13.883Z,40.19
2017-01-17T08:27:39.465Z,40.47
2017-01-17T08:28:05.151Z,40.09
2017-01-17T08:28:30.691Z,40.47
2017-01-17T08:28:56.252Z,40.47
2017-01-17T08:29:21.837Z,40.47
2017-01-17T08:29:47.412Z,40.19
2017-01-17T08:30:12.972Z,40.19
2017-01-17T08:31:05.967Z,40.47
2017-01-17T08:31:31.756Z,40.47
2017-01-17T08:31:57.330Z,40.19
2017-01-17T08:32:22.880Z,40.37
2017-01-17T08:32:48.507Z,40.37
2017-01-17T08:33:14.065Z,40.47
2017-01-17T08:33:39.647Z,40.09
2017-01-17T08:34:05.229Z,40.47
2017-01-17T08:34:30.871Z,40.47
2017-01-17T08:34:56.434Z,40.09
2017-01-17T08:35:22.159Z,40.37
2017-01-17T08:35:47.703Z,40.28
2017-01-17T08:36:13.309Z,40.47
2017-01-17T08:36:38.941Z,40.28
2017-01-17T08:37:04.487Z,40.47
2017-01-17T08:37:30.151Z,40.28
2017-01-17T08:37:55.714Z,40.47
2017-01-17T08:38:21.350Z,40.37
2017-01-17T08:38:46.905Z,40.28
2017-01-17T08:39:12.459Z,40.47
2017-01-17T08:39:38.013Z,40.28
2017-01-17T08:40:03.604Z,40.57
2017-01-17T08:40:29.852Z,40.37
2017-01-17T08:40:55.455Z,40.37
2017-01-17T08:41:21.203Z,40.47
2017-01-17T08:41:46.579Z,40.19
2017-01-17T08:42:12.123Z,40.37
2017-01-17T08:42:37.800Z,40.47
2017-01-17T08:43:03.425Z,40.28
2017-01-17T08:43:28.986Z,40.47
2017-01-17T08:43:54.540Z,40.28
2017-01-17T08:44:20.191Z,39.99
2017-01-17T08:44:45.766Z,40.37
2017-01-17T08:45:11.414Z,40.28
2017-01-17T08:45:36.998Z,40.37
2017-01-17T08:46:02.550Z,40.47
2017-01-17T08:46:28.224Z,40.37
2017-01-17T08:46:53.875Z,40.47
2017-01-17T08:47:19.430Z,40.19
2017-01-17T08:47:45.001Z,40.37
2017-01-17T08:48:10.679Z,40.26
2017-01-17T08:48:36.237Z,40.37
2017-01-17T08:49:01.807Z,40.19
2017-01-17T08:49:27.454Z,40.28
2017-01-17T08:49:53.024Z,39.99
2017-01-17T08:50:18.612Z,40.57
2017-01-17T08:50:44.178Z,40.28
2017-01-17T08:51:09.814Z,40.28
2017-01-17T08:51:35.358Z,40.37
2017-01-17T08:52:00.934Z,40.37
2017-01-17T08:52:26.515Z,40.19
2017-01-17T08:52:52.088Z,40.26
2017-01-17T08:53:17.675Z,40.57
2017-01-17T08:53:43.238Z,40.16
2017-01-17T08:54:08.779Z,40.37
2017-01-17T08:54:34.412Z,40.19
2017-01-17T08:55:00.035Z,40.57
2017-01-17T08:55:25.599Z,40.19
2017-01-17T08:55:51.195Z,40.28
2017-01-17T08:56:16.770Z,39.79
2017-01-17T08:56:42.446Z,39.99
2017-01-17T08:57:08.013Z,40.28
2017-01-17T08:57:33.587Z,40.19
2017-01-17T08:57:59.256Z,40.09
2017-01-17T08:58:24.809Z,40.09
2017-01-17T08:58:50.419Z,40.28
2017-01-17T08:59:15.960Z,40.09
2017-01-17T08:59:41.530Z,40.09
2017-01-17T09:00:07.115Z,40.19
2017-01-17T09:00:32.682Z,40.09
2017-01-17T09:00:58.219Z,40.09
2017-01-17T09:01:23.832Z,40.09
2017-01-17T09:01:49.408Z,40.19
2017-01-17T09:02:14.968Z,40.09
2017-01-17T09:02:40.626Z,40.19
2017-01-17T09:03:06.182Z,40.28
2017-01-17T09:03:31.752Z,39.79
2017-01-17T09:03:57.430Z,40.36
2017-01-17T09:04:23.146Z,40.19
2017-01-17T09:04:48.894Z,40.09
2017-01-17T09:05:15.042Z,40.09
2017-01-17T09:05:40.598Z,40.09
2017-01-17T09:06:06.166Z,39.99
2017-01-17T09:06:31.727Z,40.37
2017-01-17T09:06:58.082Z,40.07
2017-01-17T09:07:22.972Z,40.28
2017-01-17T09:07:48.538Z,40.09
2017-01-17T09:08:14.107Z,40.09
2017-01-17T09:08:39.692Z,40.28
2017-01-17T09:09:05.310Z,39.89
2017-01-17T09:09:30.878Z,40.09
2017-01-17T09:09:56.451Z,40.07
2017-01-17T09:10:22.029Z,39.99
2017-01-17T09:10:47.591Z,39.89
2017-01-17T09:11:13.142Z,40.09
2017-01-17T09:11:38.698Z,39.87
2017-01-17T09:12:04.348Z,39.89
2017-01-17T09:12:29.984Z,39.99
2017-01-17T09:12:55.721Z,39.99
2017-01-17T09:13:21.262Z,39.89
2017-01-17T09:13:46.841Z,40.16
2017-01-17T09:14:12.518Z,40.16
2017-01-17T09:14:38.083Z,40.07
2017-01-17T09:15:03.652Z,39.87
2017-01-17T09:15:29.358Z,40.19
2017-01-17T09:15:54.916Z,39.97
2017-01-17T09:16:20.484Z,40.19
2017-01-17T09:16:46.042Z,40.09
2017-01-17T09:17:11.630Z,40.09
2017-01-17T09:17:37.177Z,40.09
2017-01-17T09:18:02.753Z,40.07
2017-01-17T09:18:28.300Z,39.87
2017-01-17T09:18:53.872Z,39.79
2017-01-17T09:19:19.559Z,40.19
2017-01-17T09:19:45.168Z,40.09
2017-01-17T09:20:10.733Z,39.89
2017-01-17T09:20:36.429Z,40.19
2017-01-17T09:21:02.943Z,40.09
2017-01-17T09:21:28.491Z,40.28
2017-01-17T09:21:54.060Z,40.19
2017-01-17T09:22:19.617Z,40.09
2017-01-17T09:22:45.244Z,40.09
2017-01-17T09:23:10.948Z,40.19
2017-01-17T09:23:36.510Z,40.07
2017-01-17T09:24:02.077Z,39.99
2017-01-17T09:24:27.657Z,40.09
2017-01-17T09:24:53.280Z,39.89
2017-01-17T09:25:18.884Z,40.09
2017-01-17T09:25:44.607Z,40.19
2017-01-17T09:26:10.231Z,40.09
2017-01-17T09:26:35.830Z,40.19
2017-01-17T09:27:01.397Z,39.99
2017-01-17T09:27:26.967Z,39.89
2017-01-17T09:27:52.525Z,40.19
2017-01-17T09:28:18.076Z,39.7
2017-01-17T09:28:43.819Z,40.19
2017-01-17T09:29:09.391Z,40.19
2017-01-17T09:29:34.957Z,40.09
2017-01-17T09:30:00.575Z,40.28
2017-01-17T09:30:26.181Z,40.19
2017-01-17T09:30:51.746Z,40.19
2017-01-17T09:31:17.371Z,40.28
2017-01-17T09:31:42.933Z,40.19
2017-01-17T09:32:08.474Z,40.19
2017-01-17T09:32:34.065Z,40.19
2017-01-17T09:32:59.647Z,40.37
2017-01-17T09:33:25.216Z,40.28
2017-01-17T09:33:50.779Z,40.28
2017-01-17T09:34:16.338Z,40.28
2017-01-17T09:34:41.898Z,40.19
2017-01-17T09:35:07.563Z,40.37
2017-01-17T09:35:33.142Z,40.19
2017-01-17T09:35:58.709Z,40.09
2017-01-17T09:36:24.298Z,40.37
2017-01-17T09:36:49.856Z,40.19
2017-01-17T09:37:15.396Z,40.28
2017-01-17T09:37:40.948Z,40.57
2017-01-17T09:38:06.500Z,40.47
2017-01-17T09:38:32.097Z,40.47
2017-01-17T09:38:57.667Z,40.47
2017-01-17T09:39:23.209Z,40.37
2017-01-17T09:39:48.772Z,40.47
2017-01-17T09:40:14.328Z,40.19
2017-01-17T09:40:39.902Z,40.47
2017-01-17T09:41:05.477Z,40.28